sensor_id;sensor_type;location;lat;lon;timestamp;temperature;humidity
20233;DHT22;37438;55.674;13.074;2022-10-22T09:59:50;13.10;99.90
20233;DHT22;37438;55.674;13.074;2022-10-22T10:02:58;12.90;99.90
20233;DHT22;37438;55.674;13.074;2022-10-22T10:06:03;12.90;99.90
20233;DHT22;37438;55.674;13.074;2022-10-22T10:09:18;12.90;99.90
20233;DHT22;37438;55.674;13.074;2022-10-22T10:12:39;13.00;99.90
20233;DHT22;37438;55.674;13.074;2022-10-22T10:19:23;13.00;99.90
20233;DHT22;37438;55.674;13.074;2022-10-22T10:22:37;13.00;99.90
20233;DHT22;37438;55.674;13.074;2022-10-22T10:29:05;13.10;99.90
20233;DHT22;37438;55.674;13.074;2022-10-22T10:35:42;13.20;99.90
20233;DHT22;37438;55.674;13.074;2022-10-22T10:38:57;13.10;99.90
20233;DHT22;37438;55.674;13.074;2022-10-22T10:45:24;13.20;99.90
20233;DHT22;37438;55.674;13.074;2022-10-22T10:51:57;13.10;99.90
20233;DHT22;37438;55.674;13.074;2022-10-22T11:08:46;13.20;99.90
20233;DHT22;37438;55.674;13.074;2022-10-22T11:11:58;13.20;99.90
20233;DHT22;37438;55.674;13.074;2022-10-22T11:15:32;13.20;99.90
20233;DHT22;37438;55.674;13.074;2022-10-22T11:28:23;13.10;99.90
20233;DHT22;37438;55.674;13.074;2022-10-22T11:31:29;13.10;99.90
20233;DHT22;37438;55.674;13.074;2022-10-22T11:34:43;13.10;99.90
20233;DHT22;37438;55.674;13.074;2022-10-22T11:37:50;13.20;99.90
20233;DHT22;37438;55.674;13.074;2022-10-22T11:41:00;13.20;99.90
20233;DHT22;37438;55.674;13.074;2022-10-22T11:44:10;13.20;99.90
20233;DHT22;37438;55.674;13.074;2022-10-22T11:47:32;13.20;99.90
20233;DHT22;37438;55.674;13.074;2022-10-22T11:50:44;13.20;99.90
20233;DHT22;37438;55.674;13.074;2022-10-22T11:53:55;13.20;99.90
20233;DHT22;37438;55.674;13.074;2022-10-22T12:00:38;13.20;99.90
20233;DHT22;37438;55.674;13.074;2022-10-22T12:04:19;13.30;99.90
20233;DHT22;37438;55.674;13.074;2022-10-22T12:07:40;13.30;99.90
20233;DHT22;37438;55.674;13.074;2022-10-22T12:10:59;13.30;99.90
20233;DHT22;37438;55.674;13.074;2022-10-22T12:14:22;13.30;99.90
20233;DHT22;37438;55.674;13.074;2022-10-22T12:17:32;13.30;99.90
20233;DHT22;37438;55.674;13.074;2022-10-22T12:20:37;13.30;99.90
20233;DHT22;37438;55.674;13.074;2022-10-22T12:23:43;13.40;99.90
20233;DHT22;37438;55.674;13.074;2022-10-22T12:26:48;13.40;99.90
20233;DHT22;37438;55.674;13.074;2022-10-22T12:29:58;13.40;99.90
20233;DHT22;37438;55.674;13.074;2022-10-22T12:33:05;13.40;99.90
20233;DHT22;37438;55.674;13.074;2022-10-22T12:36:17;13.40;99.90
20233;DHT22;37438;55.674;13.074;2022-10-22T12:39:25;13.30;99.90
20233;DHT22;37438;55.674;13.074;2022-10-22T12:42:29;13.40;99.90
20233;DHT22;37438;55.674;13.074;2022-10-22T12:45:35;13.40;99.90
20233;DHT22;37438;55.674;13.074;2022-10-22T12:48:43;13.30;99.90
20233;DHT22;37438;55.674;13.074;2022-10-22T12:51:48;13.40;99.90
20233;DHT22;37438;55.674;13.074;2022-10-22T12:54:52;13.50;99.90
20233;DHT22;37438;55.674;13.074;2022-10-22T12:57:57;13.60;99.90
20233;DHT22;37438;55.674;13.074;2022-10-22T13:01:02;13.60;99.90
20233;DHT22;37438;55.674;13.074;2022-10-22T13:07:38;13.70;99.90
20233;DHT22;37438;55.674;13.074;2022-10-22T13:10:49;13.70;99.90
20233;DHT22;37438;55.674;13.074;2022-10-22T13:14:01;13.80;99.90
20233;DHT22;37438;55.674;13.074;2022-10-22T13:17:13;14.00;99.90
20233;DHT22;37438;55.674;13.074;2022-10-22T13:20:21;14.10;99.90
20233;DHT22;37438;55.674;13.074;2022-10-22T13:23:27;14.20;99.90
20233;DHT22;37438;55.674;13.074;2022-10-22T13:26:35;14.20;99.90
20233;DHT22;37438;55.674;13.074;2022-10-22T13:29:40;14.10;99.90
20233;DHT22;37438;55.674;13.074;2022-10-22T13:32:53;14.00;99.90
20233;DHT22;37438;55.674;13.074;2022-10-22T13:35:58;14.00;99.90
20233;DHT22;37438;55.674;13.074;2022-10-22T13:39:03;14.00;99.90
20233;DHT22;37438;55.674;13.074;2022-10-22T13:42:11;13.90;99.90
20233;DHT22;37438;55.674;13.074;2022-10-22T13:45:16;13.80;99.90
20233;DHT22;37438;55.674;13.074;2022-10-22T13:48:22;13.80;99.90
20233;DHT22;37438;55.674;13.074;2022-10-22T13:51:32;13.80;99.90
20233;DHT22;37438;55.674;13.074;2022-10-22T13:54:38;13.70;99.90
20233;DHT22;37438;55.674;13.074;2022-10-22T13:57:43;13.70;99.90
20233;DHT22;37438;55.674;13.074;2022-10-22T14:00:53;13.70;99.90
20233;DHT22;37438;55.674;13.074;2022-10-22T14:04:03;13.70;99.90
20233;DHT22;37438;55.674;13.074;2022-10-22T14:07:15;13.60;99.90
20233;DHT22;37438;55.674;13.074;2022-10-22T14:10:21;13.60;99.90
20233;DHT22;37438;55.674;13.074;2022-10-22T14:13:26;13.60;99.90
20233;DHT22;37438;55.674;13.074;2022-10-22T14:16:30;13.70;99.90
20233;DHT22;37438;55.674;13.074;2022-10-22T14:19:36;13.70;99.90
20233;DHT22;37438;55.674;13.074;2022-10-22T14:22:40;13.70;99.90
20233;DHT22;37438;55.674;13.074;2022-10-22T14:25:45;13.70;99.90
20233;DHT22;37438;55.674;13.074;2022-10-22T14:28:50;13.80;99.90
20233;DHT22;37438;55.674;13.074;2022-10-22T14:32:16;13.80;99.90
20233;DHT22;37438;55.674;13.074;2022-10-22T14:35:24;13.80;99.90
20233;DHT22;37438;55.674;13.074;2022-10-22T14:38:28;13.80;99.90
20233;DHT22;37438;55.674;13.074;2022-10-22T14:41:33;13.70;99.90
20233;DHT22;37438;55.674;13.074;2022-10-22T14:44:39;13.70;99.90
20233;DHT22;37438;55.674;13.074;2022-10-22T14:47:43;13.70;99.90
20233;DHT22;37438;55.674;13.074;2022-10-22T14:50:48;13.80;99.90
20233;DHT22;37438;55.674;13.074;2022-10-22T14:53:52;13.90;99.90
20233;DHT22;37438;55.674;13.074;2022-10-22T14:56:56;13.80;99.90
20233;DHT22;37438;55.674;13.074;2022-10-22T15:00:03;13.70;99.90
20233;DHT22;37438;55.674;13.074;2022-10-22T15:03:08;13.70;99.90
20233;DHT22;37438;55.674;13.074;2022-10-22T15:06:13;14.00;99.90
20233;DHT22;37438;55.674;13.074;2022-10-22T15:09:18;14.50;99.90
20233;DHT22;37438;55.674;13.074;2022-10-22T15:12:22;14.30;99.90
20233;DHT22;37438;55.674;13.074;2022-10-22T15:15:26;14.30;99.90
20233;DHT22;37438;55.674;13.074;2022-10-22T15:18:41;14.10;99.90
20233;DHT22;37438;55.674;13.074;2022-10-22T15:21:45;14.00;99.90
20233;DHT22;37438;55.674;13.074;2022-10-22T15:24:50;13.80;99.90
20233;DHT22;37438;55.674;13.074;2022-10-22T15:27:56;13.50;99.90
20233;DHT22;37438;55.674;13.074;2022-10-22T15:31:13;13.50;99.90
20233;DHT22;37438;55.674;13.074;2022-10-22T15:34:26;13.50;99.90
20233;DHT22;37438;55.674;13.074;2022-10-22T15:37:31;13.50;99.90
20233;DHT22;37438;55.674;13.074;2022-10-22T15:40:36;13.40;99.90
20233;DHT22;37438;55.674;13.074;2022-10-22T15:43:40;13.30;99.90
20233;DHT22;37438;55.674;13.074;2022-10-22T15:46:45;13.20;99.90
20233;DHT22;37438;55.674;13.074;2022-10-22T15:49:50;13.00;99.90
20233;DHT22;37438;55.674;13.074;2022-10-22T15:52:55;12.90;99.90
20233;DHT22;37438;55.674;13.074;2022-10-22T15:55:59;12.80;99.90
20233;DHT22;37438;55.674;13.074;2022-10-22T15:59:03;12.60;99.90
20233;DHT22;37438;55.674;13.074;2022-10-22T16:02:09;12.50;99.90
20233;DHT22;37438;55.674;13.074;2022-10-22T16:05:14;12.50;99.90
20233;DHT22;37438;55.674;13.074;2022-10-22T16:08:18;12.50;99.90
20233;DHT22;37438;55.674;13.074;2022-10-22T16:11:22;12.40;99.90
20233;DHT22;37438;55.674;13.074;2022-10-22T16:14:27;12.40;99.90
20233;DHT22;37438;55.674;13.074;2022-10-22T16:17:32;12.30;99.90
20233;DHT22;37438;55.674;13.074;2022-10-22T16:20:40;12.40;99.90
20233;DHT22;37438;55.674;13.074;2022-10-22T16:23:45;12.40;99.90
20233;DHT22;37438;55.674;13.074;2022-10-22T16:26:49;12.50;99.90
20233;DHT22;37438;55.674;13.074;2022-10-22T16:29:55;12.40;99.90
20233;DHT22;37438;55.674;13.074;2022-10-22T16:33:04;12.50;99.90
20233;DHT22;37438;55.674;13.074;2022-10-22T16:36:10;12.40;99.90
20233;DHT22;37438;55.674;13.074;2022-10-22T16:39:14;12.40;99.90
20233;DHT22;37438;55.674;13.074;2022-10-22T16:42:19;12.40;99.90
20233;DHT22;37438;55.674;13.074;2022-10-22T16:45:24;12.40;99.90
20233;DHT22;37438;55.674;13.074;2022-10-22T16:48:28;12.40;99.90
20233;DHT22;37438;55.674;13.074;2022-10-22T16:51:33;12.30;99.90
20233;DHT22;37438;55.674;13.074;2022-10-22T16:54:37;12.30;99.90
20233;DHT22;37438;55.674;13.074;2022-10-22T16:57:42;12.30;99.90
20233;DHT22;37438;55.674;13.074;2022-10-22T17:00:47;12.40;99.90
20233;DHT22;37438;55.674;13.074;2022-10-22T17:03:52;12.30;99.90
20233;DHT22;37438;55.674;13.074;2022-10-22T17:06:57;12.30;99.90
20233;DHT22;37438;55.674;13.074;2022-10-22T17:10:01;12.30;99.90
20233;DHT22;37438;55.674;13.074;2022-10-22T17:13:06;12.30;99.90
20233;DHT22;37438;55.674;13.074;2022-10-22T17:16:12;12.30;99.90
20233;DHT22;37438;55.674;13.074;2022-10-22T17:19:17;12.30;99.90
20233;DHT22;37438;55.674;13.074;2022-10-22T17:22:21;12.30;99.90
20233;DHT22;37438;55.674;13.074;2022-10-22T17:25:35;12.20;99.90
20233;DHT22;37438;55.674;13.074;2022-10-22T17:28:43;12.20;99.90
20233;DHT22;37438;55.674;13.074;2022-10-22T17:31:48;12.20;99.90
20233;DHT22;37438;55.674;13.074;2022-10-22T17:34:53;12.20;99.90
20233;DHT22;37438;55.674;13.074;2022-10-22T17:37:57;12.30;99.90
20233;DHT22;37438;55.674;13.074;2022-10-22T17:41:02;12.40;99.90
20233;DHT22;37438;55.674;13.074;2022-10-22T17:44:10;12.30;99.90
20233;DHT22;37438;55.674;13.074;2022-10-22T17:47:15;12.30;99.90
20233;DHT22;37438;55.674;13.074;2022-10-22T17:50:20;12.30;99.90
20233;DHT22;37438;55.674;13.074;2022-10-22T17:53:24;12.30;99.90
20233;DHT22;37438;55.674;13.074;2022-10-22T17:56:29;12.30;99.90
20233;DHT22;37438;55.674;13.074;2022-10-22T17:59:34;12.30;99.90
20233;DHT22;37438;55.674;13.074;2022-10-22T18:02:38;12.30;99.90
20233;DHT22;37438;55.674;13.074;2022-10-22T18:05:46;12.30;99.90
20233;DHT22;37438;55.674;13.074;2022-10-22T18:08:50;12.30;99.90
20233;DHT22;37438;55.674;13.074;2022-10-22T18:11:54;12.30;99.90
20233;DHT22;37438;55.674;13.074;2022-10-22T18:14:59;12.30;99.90
20233;DHT22;37438;55.674;13.074;2022-10-22T18:18:03;12.30;99.90
20233;DHT22;37438;55.674;13.074;2022-10-22T18:21:08;12.30;99.90
20233;DHT22;37438;55.674;13.074;2022-10-22T18:24:13;12.40;99.90
20233;DHT22;37438;55.674;13.074;2022-10-22T18:27:18;12.30;99.90
20233;DHT22;37438;55.674;13.074;2022-10-22T18:30:22;12.30;99.90
20233;DHT22;37438;55.674;13.074;2022-10-22T18:33:27;12.30;99.90
20233;DHT22;37438;55.674;13.074;2022-10-22T18:36:31;12.40;99.90
20233;DHT22;37438;55.674;13.074;2022-10-22T18:39:35;12.40;99.90
20233;DHT22;37438;55.674;13.074;2022-10-22T18:42:40;12.30;99.90
20233;DHT22;37438;55.674;13.074;2022-10-22T18:45:46;12.40;99.90
20233;DHT22;37438;55.674;13.074;2022-10-22T18:48:53;12.40;99.90
20233;DHT22;37438;55.674;13.074;2022-10-22T18:51:57;12.40;99.90
20233;DHT22;37438;55.674;13.074;2022-10-22T18:55:01;12.40;99.90
20233;DHT22;37438;55.674;13.074;2022-10-22T18:58:06;12.40;99.90
20233;DHT22;37438;55.674;13.074;2022-10-22T19:01:22;12.40;99.90
20233;DHT22;37438;55.674;13.074;2022-10-22T19:04:27;12.40;99.90
20233;DHT22;37438;55.674;13.074;2022-10-22T19:07:36;12.40;99.90
20233;DHT22;37438;55.674;13.074;2022-10-22T19:10:40;12.40;99.90
20233;DHT22;37438;55.674;13.074;2022-10-22T19:13:45;12.40;99.90
20233;DHT22;37438;55.674;13.074;2022-10-22T19:16:49;12.40;99.90
20233;DHT22;37438;55.674;13.074;2022-10-22T19:19:54;12.40;99.90
20233;DHT22;37438;55.674;13.074;2022-10-22T19:22:58;12.50;99.90
20233;DHT22;37438;55.674;13.074;2022-10-22T19:26:06;12.50;99.90
20233;DHT22;37438;55.674;13.074;2022-10-22T19:29:15;12.50;99.90
20233;DHT22;37438;55.674;13.074;2022-10-22T19:32:20;12.50;99.90
20233;DHT22;37438;55.674;13.074;2022-10-22T19:35:24;12.50;99.90
20233;DHT22;37438;55.674;13.074;2022-10-22T19:38:28;12.50;99.90
20233;DHT22;37438;55.674;13.074;2022-10-22T19:41:33;12.50;99.90
20233;DHT22;37438;55.674;13.074;2022-10-22T19:44:38;12.50;99.90
20233;DHT22;37438;55.674;13.074;2022-10-22T19:47:42;12.50;99.90
20233;DHT22;37438;55.674;13.074;2022-10-22T19:50:47;12.50;99.90
20233;DHT22;37438;55.674;13.074;2022-10-22T19:54:00;12.60;99.90
20233;DHT22;37438;55.674;13.074;2022-10-22T19:57:05;12.60;99.90
20233;DHT22;37438;55.674;13.074;2022-10-22T20:00:09;12.60;99.90
20233;DHT22;37438;55.674;13.074;2022-10-22T20:03:14;12.50;99.90
20233;DHT22;37438;55.674;13.074;2022-10-22T20:06:19;12.50;99.90
20233;DHT22;37438;55.674;13.074;2022-10-22T20:09:24;12.60;99.90
20233;DHT22;37438;55.674;13.074;2022-10-22T20:12:29;12.60;99.90
20233;DHT22;37438;55.674;13.074;2022-10-22T20:15:34;12.60;99.90
20233;DHT22;37438;55.674;13.074;2022-10-22T20:18:39;12.60;99.90
20233;DHT22;37438;55.674;13.074;2022-10-22T20:21:44;12.60;99.90
20233;DHT22;37438;55.674;13.074;2022-10-22T20:24:49;12.60;99.90
20233;DHT22;37438;55.674;13.074;2022-10-22T20:27:53;12.60;99.90
20233;DHT22;37438;55.674;13.074;2022-10-22T20:30:58;12.60;99.90
20233;DHT22;37438;55.674;13.074;2022-10-22T20:34:02;12.60;99.90
20233;DHT22;37438;55.674;13.074;2022-10-22T20:37:07;12.60;99.90
20233;DHT22;37438;55.674;13.074;2022-10-22T20:40:11;12.60;99.90
20233;DHT22;37438;55.674;13.074;2022-10-22T20:43:16;12.60;99.90
20233;DHT22;37438;55.674;13.074;2022-10-22T20:46:26;12.60;99.90
20233;DHT22;37438;55.674;13.074;2022-10-22T20:49:32;12.70;99.90
20233;DHT22;37438;55.674;13.074;2022-10-22T20:52:37;12.70;99.90
20233;DHT22;37438;55.674;13.074;2022-10-22T20:55:41;12.60;99.90
20233;DHT22;37438;55.674;13.074;2022-10-22T20:58:47;12.70;99.90
20233;DHT22;37438;55.674;13.074;2022-10-22T21:01:53;12.70;99.90
20233;DHT22;37438;55.674;13.074;2022-10-22T21:04:57;12.70;99.90
20233;DHT22;37438;55.674;13.074;2022-10-22T21:08:01;12.70;99.90
20233;DHT22;37438;55.674;13.074;2022-10-22T21:11:08;12.70;99.90
20233;DHT22;37438;55.674;13.074;2022-10-22T21:14:14;12.70;99.90
20233;DHT22;37438;55.674;13.074;2022-10-22T21:17:19;12.70;99.90
20233;DHT22;37438;55.674;13.074;2022-10-22T21:20:24;12.80;99.90
20233;DHT22;37438;55.674;13.074;2022-10-22T21:23:28;12.80;99.90
20233;DHT22;37438;55.674;13.074;2022-10-22T21:26:36;12.80;99.90
20233;DHT22;37438;55.674;13.074;2022-10-22T21:29:41;12.80;99.90
20233;DHT22;37438;55.674;13.074;2022-10-22T21:32:45;12.80;99.90
20233;DHT22;37438;55.674;13.074;2022-10-22T21:35:51;12.90;99.90
20233;DHT22;37438;55.674;13.074;2022-10-22T21:38:55;12.90;99.90
20233;DHT22;37438;55.674;13.074;2022-10-22T21:42:00;12.90;99.90
20233;DHT22;37438;55.674;13.074;2022-10-22T21:45:05;12.90;99.90
20233;DHT22;37438;55.674;13.074;2022-10-22T21:48:17;12.90;99.90
20233;DHT22;37438;55.674;13.074;2022-10-22T21:51:23;12.80;99.90
20233;DHT22;37438;55.674;13.074;2022-10-22T21:54:28;12.80;99.90
20233;DHT22;37438;55.674;13.074;2022-10-22T21:57:32;12.80;99.90
20233;DHT22;37438;55.674;13.074;2022-10-22T22:00:37;12.80;99.90
20233;DHT22;37438;55.674;13.074;2022-10-22T22:03:43;12.80;99.90
20233;DHT22;37438;55.674;13.074;2022-10-22T22:06:48;12.80;99.90
20233;DHT22;37438;55.674;13.074;2022-10-22T22:09:53;12.80;99.90
20233;DHT22;37438;55.674;13.074;2022-10-22T22:12:57;12.80;99.90
20233;DHT22;37438;55.674;13.074;2022-10-22T22:16:07;12.80;99.90
20233;DHT22;37438;55.674;13.074;2022-10-22T22:19:12;12.80;99.90
20233;DHT22;37438;55.674;13.074;2022-10-22T22:22:16;12.80;99.90
20233;DHT22;37438;55.674;13.074;2022-10-22T22:25:21;12.80;99.90
20233;DHT22;37438;55.674;13.074;2022-10-22T22:28:27;12.80;99.90
20233;DHT22;37438;55.674;13.074;2022-10-22T22:31:33;12.90;99.90
20233;DHT22;37438;55.674;13.074;2022-10-22T22:34:37;12.90;99.90
20233;DHT22;37438;55.674;13.074;2022-10-22T22:37:42;12.90;99.90
20233;DHT22;37438;55.674;13.074;2022-10-22T22:40:46;12.90;99.90
20233;DHT22;37438;55.674;13.074;2022-10-22T22:43:51;12.90;99.90
20233;DHT22;37438;55.674;13.074;2022-10-22T22:46:56;12.90;99.90
20233;DHT22;37438;55.674;13.074;2022-10-22T22:50:00;12.90;99.90
20233;DHT22;37438;55.674;13.074;2022-10-22T22:53:05;12.90;99.90
20233;DHT22;37438;55.674;13.074;2022-10-22T22:56:21;12.90;99.90
20233;DHT22;37438;55.674;13.074;2022-10-22T22:59:26;12.90;99.90
20233;DHT22;37438;55.674;13.074;2022-10-22T23:02:30;12.90;99.90
20233;DHT22;37438;55.674;13.074;2022-10-22T23:05:36;12.90;99.90
20233;DHT22;37438;55.674;13.074;2022-10-22T23:08:41;12.90;99.90
20233;DHT22;37438;55.674;13.074;2022-10-22T23:11:45;12.90;99.90
20233;DHT22;37438;55.674;13.074;2022-10-22T23:14:50;12.90;99.90
20233;DHT22;37438;55.674;13.074;2022-10-22T23:17:54;12.90;99.90
20233;DHT22;37438;55.674;13.074;2022-10-22T23:21:02;12.90;99.90
20233;DHT22;37438;55.674;13.074;2022-10-22T23:24:11;12.90;99.90
20233;DHT22;37438;55.674;13.074;2022-10-22T23:27:16;12.90;99.90
20233;DHT22;37438;55.674;13.074;2022-10-22T23:30:20;13.00;99.90
20233;DHT22;37438;55.674;13.074;2022-10-22T23:33:25;12.90;99.90
20233;DHT22;37438;55.674;13.074;2022-10-22T23:36:30;13.00;99.90
20233;DHT22;37438;55.674;13.074;2022-10-22T23:39:34;13.00;99.90
20233;DHT22;37438;55.674;13.074;2022-10-22T23:42:39;13.00;99.90
20233;DHT22;37438;55.674;13.074;2022-10-22T23:45:43;13.00;99.90
20233;DHT22;37438;55.674;13.074;2022-10-22T23:48:47;13.00;99.90
20233;DHT22;37438;55.674;13.074;2022-10-22T23:51:52;13.10;99.90
20233;DHT22;37438;55.674;13.074;2022-10-22T23:54:56;13.10;99.90
20233;DHT22;37438;55.674;13.074;2022-10-22T23:58:01;13.10;99.90
